createdAt,value
2023-03-24T00:02:19.875Z,8.65
2023-03-24T00:04:58.489Z,8.58
2023-03-24T00:07:25.521Z,8.57
2023-03-24T00:09:51.846Z,8.51
2023-03-24T00:12:18.565Z,8.47
2023-03-24T00:14:48.426Z,8.60
2023-03-24T00:17:17.472Z,8.50
2023-03-24T00:19:45.235Z,8.43
2023-03-24T00:22:14.478Z,8.41
2023-03-24T00:24:41.244Z,8.39
2023-03-24T00:27:07.936Z,8.45
2023-03-24T00:29:38.189Z,8.57
2023-03-24T00:32:04.689Z,8.55
2023-03-24T00:34:31.025Z,8.57
2023-03-24T00:36:57.336Z,8.58
2023-03-24T00:39:23.667Z,8.61
2023-03-24T00:41:50.051Z,8.65
2023-03-24T00:44:19.795Z,8.61
2023-03-24T00:46:57.953Z,8.68
2023-03-24T00:49:43.151Z,8.73
2023-03-24T00:52:10.584Z,8.77
2023-03-24T00:54:37.820Z,8.89
2023-03-24T00:57:09.237Z,8.94
2023-03-24T00:59:42.375Z,8.98
2023-03-24T01:02:11.857Z,9.04
2023-03-24T01:04:39.657Z,9.09
2023-03-24T01:07:07.779Z,9.03
2023-03-24T01:09:36.318Z,9.19
2023-03-24T01:12:12.215Z,9.11
2023-03-24T01:14:38.527Z,8.97
2023-03-24T01:17:06.343Z,9.02
2023-03-24T01:19:33.045Z,9.09
2023-03-24T01:22:02.570Z,9.02
2023-03-24T01:24:29.569Z,9.09
2023-03-24T01:26:55.990Z,9.10
2023-03-24T01:29:22.278Z,9.07
2023-03-24T01:31:48.701Z,9.23
2023-03-24T01:34:15.289Z,9.14
2023-03-24T01:36:41.743Z,9.15
2023-03-24T01:39:08.017Z,9.19
2023-03-24T01:41:36.253Z,9.20
2023-03-24T01:44:22.490Z,9.15
2023-03-24T01:46:48.772Z,9.05
2023-03-24T01:49:15.581Z,9.03
2023-03-24T01:51:43.214Z,9.07
2023-03-24T01:54:21.914Z,8.97
2023-03-24T01:57:14.730Z,8.87
2023-03-24T01:59:44.224Z,8.84
2023-03-24T02:02:13.693Z,8.82
2023-03-24T02:04:42.654Z,8.85
2023-03-24T02:07:27.587Z,8.88
2023-03-24T02:09:53.931Z,8.81
2023-03-24T02:12:20.638Z,8.79
2023-03-24T02:14:47.142Z,8.83
2023-03-24T02:17:30.398Z,8.81
2023-03-24T02:20:10.216Z,8.83
2023-03-24T02:22:46.670Z,8.86
2023-03-24T02:25:37.668Z,8.76
2023-03-24T02:28:10.077Z,8.73
2023-03-24T02:30:55.832Z,8.72
2023-03-24T02:33:40.912Z,8.83
2023-03-24T02:36:13.409Z,8.89
2023-03-24T02:38:55.260Z,8.97
2023-03-24T02:41:55.883Z,9.11
2023-03-24T02:44:30.694Z,9.02
2023-03-24T02:47:06.218Z,9.07
2023-03-24T02:49:42.812Z,9.06
2023-03-24T02:52:11.840Z,9.07
2023-03-24T02:54:49.695Z,9.32
2023-03-24T02:57:22.001Z,9.48
2023-03-24T02:59:53.175Z,9.63
2023-03-24T03:02:23.295Z,9.56
2023-03-24T03:05:00.892Z,9.61
2023-03-24T03:07:33.473Z,9.37
2023-03-24T03:10:02.264Z,9.46
2023-03-24T03:12:31.534Z,9.52
2023-03-24T03:15:03.606Z,9.67
2023-03-24T03:17:33.276Z,9.71
2023-03-24T03:20:08.074Z,9.82
2023-03-24T03:22:38.811Z,9.94
2023-03-24T03:25:06.040Z,9.93
2023-03-24T03:27:38.878Z,10.09
2023-03-24T03:30:08.614Z,9.96
2023-03-24T03:32:39.090Z,9.89
2023-03-24T03:35:14.177Z,9.95
2023-03-24T03:37:51.242Z,9.82
2023-03-24T03:40:20.791Z,9.99
2023-03-24T03:42:47.620Z,10.04
2023-03-24T03:45:14.551Z,9.96
2023-03-24T03:47:41.226Z,9.94
2023-03-24T03:50:08.838Z,9.73
2023-03-24T03:52:36.003Z,9.71
2023-03-24T03:55:02.998Z,9.78
2023-03-24T03:57:29.540Z,9.79
2023-03-24T03:59:56.587Z,9.92
2023-03-24T04:02:43.235Z,10.04
2023-03-24T04:05:10.258Z,10.15
2023-03-24T04:07:40.977Z,10.11
2023-03-24T04:10:13.227Z,10.63
2023-03-24T04:12:53.125Z,11.28
2023-03-24T04:15:36.257Z,11.91
2023-03-24T04:18:02.635Z,12.31
2023-03-24T04:20:49.842Z,12.29
2023-03-24T04:23:39.950Z,12.29
2023-03-24T04:26:45.356Z,12.08
2023-03-24T04:29:20.520Z,11.95
2023-03-24T04:32:02.577Z,12.00
2023-03-24T04:34:31.787Z,11.81
2023-03-24T04:37:04.295Z,11.77
2023-03-24T04:39:32.617Z,11.68
2023-03-24T04:42:01.768Z,11.83
2023-03-24T04:44:30.129Z,11.81
2023-03-24T04:46:57.675Z,11.77
2023-03-24T04:49:27.168Z,11.57
2023-03-24T04:51:53.687Z,11.67
2023-03-24T04:54:22.290Z,11.49
2023-03-24T04:56:53.605Z,11.46
2023-03-24T04:59:20.314Z,11.28
2023-03-24T05:01:50.732Z,11.21
2023-03-24T05:04:29.766Z,11.39
2023-03-24T05:06:56.155Z,11.21
2023-03-24T05:09:25.299Z,11.06
2023-03-24T05:11:54.669Z,10.93
2023-03-24T05:14:23.599Z,10.80
2023-03-24T05:16:56.780Z,10.76
2023-03-24T05:19:23.061Z,10.66
2023-03-24T05:21:49.456Z,10.41
2023-03-24T05:24:15.888Z,10.18
2023-03-24T05:26:42.204Z,10.05
2023-03-24T05:29:18.690Z,10.19
2023-03-24T05:31:45.133Z,10.42
2023-03-24T05:34:11.437Z,10.24
2023-03-24T05:36:38.372Z,10.55
2023-03-24T05:39:05.052Z,10.42
2023-03-24T05:41:32.388Z,10.14
2023-03-24T05:43:58.856Z,9.92
2023-03-24T05:46:26.544Z,9.92
2023-03-24T05:48:53.052Z,10.05
2023-03-24T05:51:19.354Z,9.91
2023-03-24T05:53:45.702Z,10.01
2023-03-24T05:56:12.140Z,10.05
2023-03-24T05:58:39.344Z,10.00
2023-03-24T06:01:28.827Z,10.04
2023-03-24T06:03:55.575Z,10.07
2023-03-24T06:06:22.332Z,10.22
2023-03-24T06:08:49.427Z,10.20
2023-03-24T06:11:16.280Z,10.21
2023-03-24T06:13:42.669Z,10.18
2023-03-24T06:16:09.888Z,10.20
2023-03-24T06:18:36.255Z,10.36
2023-03-24T06:21:02.532Z,10.42
2023-03-24T06:23:28.957Z,10.53
2023-03-24T06:26:01.237Z,10.41
2023-03-24T06:28:30.185Z,10.26
2023-03-24T06:30:58.749Z,10.33
2023-03-24T06:33:35.232Z,10.37
2023-03-24T06:36:02.582Z,10.54
2023-03-24T06:38:28.905Z,11.05
2023-03-24T06:40:59.482Z,11.22
2023-03-24T06:43:25.739Z,11.43
2023-03-24T06:45:59.726Z,11.72
2023-03-24T06:48:26.299Z,11.84
2023-03-24T06:50:53.472Z,12.04
2023-03-24T06:53:21.712Z,11.78
2023-03-24T06:55:48.436Z,11.89
2023-03-24T06:58:15.701Z,12.02
2023-03-24T07:00:42.431Z,12.04
2023-03-24T07:03:08.890Z,12.00
2023-03-24T07:05:38.942Z,12.13
2023-03-24T07:08:33.696Z,11.95
2023-03-24T07:10:51.853Z,11.69
2023-03-24T07:13:18.164Z,11.57
2023-03-24T07:15:44.742Z,11.62
2023-03-24T07:18:11.216Z,11.56
2023-03-24T07:20:37.993Z,11.51
2023-03-24T07:23:04.323Z,11.80
2023-03-24T07:25:30.614Z,11.94
2023-03-24T07:27:56.918Z,11.93
2023-03-24T07:30:30.019Z,11.95
2023-03-24T07:33:01.939Z,11.87
2023-03-24T07:35:28.645Z,11.95
2023-03-24T07:37:58.452Z,11.84
2023-03-24T07:40:24.769Z,11.92
2023-03-24T07:42:51.577Z,11.85
2023-03-24T07:45:17.902Z,11.81
2023-03-24T07:47:45.489Z,11.84
2023-03-24T07:50:12.492Z,11.75
2023-03-24T07:52:40.084Z,11.84
2023-03-24T07:55:10.883Z,12.02
2023-03-24T07:57:37.872Z,12.08
2023-03-24T08:00:10.591Z,12.17
2023-03-24T08:02:36.954Z,12.17
2023-03-24T08:05:05.812Z,12.20
2023-03-24T08:07:32.082Z,12.14
2023-03-24T08:09:58.351Z,11.87
2023-03-24T08:12:24.665Z,12.19
2023-03-24T08:14:51.413Z,12.02
2023-03-24T08:17:17.813Z,12.05
2023-03-24T08:19:58.266Z,11.93
2023-03-24T08:22:27.162Z,11.78
2023-03-24T08:24:53.442Z,11.67
2023-03-24T08:27:19.748Z,11.56
2023-03-24T08:29:46.328Z,11.60
2023-03-24T08:32:12.835Z,11.47
2023-03-24T08:34:39.123Z,11.62
2023-03-24T08:37:05.417Z,11.44
2023-03-24T08:39:32.437Z,11.42
2023-03-24T08:41:58.762Z,11.23
2023-03-24T08:44:25.069Z,11.36
2023-03-24T08:46:51.404Z,11.24
2023-03-24T08:49:17.694Z,11.30
2023-03-24T08:51:44.208Z,11.45
2023-03-24T08:54:12.572Z,11.49
2023-03-24T08:56:39.796Z,11.27
2023-03-24T08:59:06.663Z,11.22
2023-03-24T09:01:36.604Z,11.26
2023-03-24T09:04:03.968Z,11.18
2023-03-24T09:06:30.961Z,11.35
2023-03-24T09:08:57.294Z,11.38
2023-03-24T09:11:24.438Z,11.32
2023-03-24T09:13:50.751Z,11.30
2023-03-24T09:16:17.795Z,11.19
2023-03-24T09:18:44.412Z,10.93
2023-03-24T09:21:11.111Z,11.10
2023-03-24T09:23:37.448Z,10.92
2023-03-24T09:26:03.988Z,10.82
2023-03-24T09:28:30.294Z,11.04
2023-03-24T09:30:58.007Z,11.25
2023-03-24T09:33:24.462Z,11.06
2023-03-24T09:35:59.653Z,11.16
2023-03-24T09:38:26.752Z,11.02
2023-03-24T09:40:55.479Z,10.92
2023-03-24T09:43:37.808Z,10.78
2023-03-24T09:46:05.357Z,10.53
2023-03-24T09:48:35.314Z,10.66
2023-03-24T09:51:25.291Z,10.57
2023-03-24T09:54:09.194Z,10.56
2023-03-24T09:56:37.482Z,10.57
2023-03-24T09:59:04.005Z,10.55
2023-03-24T10:01:35.712Z,10.76
2023-03-24T10:04:02.715Z,10.52
2023-03-24T10:06:38.615Z,10.66
2023-03-24T10:09:11.904Z,10.80
2023-03-24T10:11:44.339Z,10.63
2023-03-24T10:14:17.891Z,10.75
2023-03-24T10:16:50.852Z,11.19
2023-03-24T10:19:36.430Z,11.17
2023-03-24T10:22:11.015Z,11.36
2023-03-24T10:24:48.234Z,11.63
2023-03-24T10:27:14.529Z,12.15
2023-03-24T10:29:41.852Z,12.35
2023-03-24T10:32:16.651Z,12.82
2023-03-24T10:34:45.753Z,12.81
2023-03-24T10:37:14.143Z,13.08
2023-03-24T10:39:44.875Z,13.22
2023-03-24T10:42:18.333Z,13.38
2023-03-24T10:44:46.922Z,13.61
2023-03-24T10:47:14.336Z,13.95
2023-03-24T10:49:52.232Z,14.02
2023-03-24T10:52:18.574Z,14.14
2023-03-24T10:54:54.030Z,14.23
2023-03-24T10:57:22.332Z,14.75
2023-03-24T10:59:48.714Z,15.30
2023-03-24T11:02:28.196Z,15.08
2023-03-24T11:05:10.103Z,14.57
2023-03-24T11:07:38.793Z,14.22
2023-03-24T11:10:11.006Z,14.04
2023-03-24T11:12:38.928Z,13.44
2023-03-24T11:15:21.099Z,13.41
2023-03-24T11:17:53.068Z,13.71
2023-03-24T11:20:20.980Z,13.46
2023-03-24T11:22:58.843Z,13.32
2023-03-24T11:25:26.577Z,13.83
2023-03-24T11:27:57.734Z,14.00
2023-03-24T11:30:24.413Z,13.74
2023-03-24T11:32:50.864Z,13.50
2023-03-24T11:35:18.372Z,13.63
2023-03-24T11:37:45.794Z,13.47
2023-03-24T11:40:12.073Z,13.35
2023-03-24T11:42:55.843Z,13.30
2023-03-24T11:45:25.511Z,13.34
2023-03-24T11:47:53.919Z,13.32
2023-03-24T11:50:24.075Z,13.10
2023-03-24T11:52:50.465Z,12.61
2023-03-24T11:55:36.166Z,12.38
2023-03-24T11:58:27.752Z,11.94
2023-03-24T12:01:07.403Z,11.82
2023-03-24T12:03:49.049Z,11.84
2023-03-24T12:06:26.640Z,12.30
2023-03-24T12:09:04.213Z,11.94
2023-03-24T12:11:36.604Z,12.52
2023-03-24T12:14:04.713Z,12.63
2023-03-24T12:16:40.127Z,12.57
2023-03-24T12:19:27.492Z,12.42
2023-03-24T12:22:19.327Z,11.89
2023-03-24T12:25:12.267Z,11.66
2023-03-24T12:27:53.974Z,11.93
2023-03-24T12:30:29.500Z,11.73
2023-03-24T12:33:08.549Z,12.12
2023-03-24T12:35:44.266Z,12.14
2023-03-24T12:38:16.333Z,11.95
2023-03-24T12:41:03.531Z,11.67
2023-03-24T12:43:48.052Z,11.40
2023-03-24T12:46:34.140Z,11.40
2023-03-24T12:49:19.361Z,11.61
2023-03-24T12:52:01.825Z,11.88
2023-03-24T12:54:29.889Z,11.29
2023-03-24T12:57:05.854Z,11.33
2023-03-24T12:59:37.488Z,11.48
2023-03-24T13:02:16.232Z,11.39
2023-03-24T13:04:44.572Z,11.29
2023-03-24T13:07:31.476Z,11.25
2023-03-24T13:10:20.360Z,11.32
2023-03-24T13:13:05.303Z,11.26
2023-03-24T13:16:04.802Z,11.91
2023-03-24T13:18:34.043Z,11.94
2023-03-24T13:21:19.533Z,12.09
2023-03-24T13:24:03.000Z,12.22
2023-03-24T13:26:38.346Z,12.22
2023-03-24T13:29:10.800Z,11.90
2023-03-24T13:31:56.110Z,11.92
2023-03-24T13:34:22.398Z,11.56
2023-03-24T13:36:50.673Z,11.45
2023-03-24T13:39:19.227Z,11.15
2023-03-24T13:41:51.876Z,11.18
2023-03-24T13:44:20.219Z,10.77
2023-03-24T13:47:00.356Z,10.53
2023-03-24T13:49:26.818Z,10.41
2023-03-24T13:51:53.162Z,10.33
2023-03-24T13:54:28.925Z,10.08
2023-03-24T13:57:01.332Z,10.06
2023-03-24T13:59:32.280Z,9.94
2023-03-24T14:02:17.508Z,9.71
2023-03-24T14:04:45.296Z,9.77
2023-03-24T14:07:33.773Z,9.81
2023-03-24T14:10:02.251Z,9.61
2023-03-24T14:12:32.746Z,9.63
2023-03-24T14:15:05.310Z,9.78
2023-03-24T14:17:31.684Z,9.29
2023-03-24T14:19:57.970Z,9.32
2023-03-24T14:22:28.372Z,9.35
2023-03-24T14:24:58.442Z,9.27
2023-03-24T14:27:31.070Z,9.20
2023-03-24T14:30:00.789Z,9.17
2023-03-24T14:32:27.260Z,9.09
2023-03-24T14:35:01.118Z,9.09
2023-03-24T14:37:28.548Z,9.14
2023-03-24T14:39:57.473Z,9.06
2023-03-24T14:42:32.992Z,9.08
2023-03-24T14:45:03.882Z,8.83
2023-03-24T14:47:31.655Z,8.93
2023-03-24T14:49:58.953Z,8.85
2023-03-24T14:52:30.114Z,8.86
2023-03-24T14:55:18.804Z,8.86
2023-03-24T14:57:47.129Z,8.91
2023-03-24T15:00:28.536Z,8.74
2023-03-24T15:03:03.016Z,8.81
2023-03-24T15:05:32.522Z,8.90
2023-03-24T15:08:01.008Z,8.84
2023-03-24T15:10:31.695Z,8.82
2023-03-24T15:12:58.001Z,9.03
2023-03-24T15:15:24.691Z,8.85
2023-03-24T15:17:51.770Z,8.93
2023-03-24T15:20:33.685Z,9.09
2023-03-24T15:23:05.901Z,9.04
2023-03-24T15:25:32.322Z,9.07
2023-03-24T15:27:58.590Z,9.04
2023-03-24T15:30:25.203Z,9.07
2023-03-24T15:32:51.991Z,8.93
2023-03-24T15:35:20.937Z,8.55
2023-03-24T15:37:54.775Z,8.67
2023-03-24T15:40:24.162Z,8.39
2023-03-24T15:42:50.591Z,8.45
2023-03-24T15:45:22.658Z,8.43
2023-03-24T15:47:51.402Z,8.23
2023-03-24T15:50:29.098Z,8.45
2023-03-24T15:52:59.457Z,8.32
2023-03-24T15:55:37.115Z,8.29
2023-03-24T15:58:23.470Z,8.25
2023-03-24T16:00:53.118Z,8.38
2023-03-24T16:03:19.583Z,8.73
2023-03-24T16:05:51.190Z,8.52
2023-03-24T16:08:28.235Z,8.37
2023-03-24T16:10:59.772Z,8.50
2023-03-24T16:13:26.923Z,8.43
2023-03-24T16:15:53.175Z,8.48
2023-03-24T16:18:22.746Z,8.32
2023-03-24T16:20:51.730Z,8.57
2023-03-24T16:23:30.888Z,8.28
2023-03-24T16:26:13.355Z,8.59
2023-03-24T16:28:39.706Z,8.33
2023-03-24T16:31:06.536Z,8.60
2023-03-24T16:33:33.982Z,8.57
2023-03-24T16:36:00.906Z,8.45
2023-03-24T16:38:27.344Z,8.35
2023-03-24T16:40:55.339Z,8.55
2023-03-24T16:43:21.971Z,8.33
2023-03-24T16:45:51.777Z,8.31
2023-03-24T16:48:18.128Z,8.17
2023-03-24T16:50:51.693Z,8.09
2023-03-24T16:53:18.760Z,8.06
2023-03-24T16:55:46.786Z,8.02
2023-03-24T16:58:14.397Z,8.16
2023-03-24T17:00:43.663Z,8.09
2023-03-24T17:03:13.974Z,8.17
2023-03-24T17:05:51.258Z,7.94
2023-03-24T17:08:18.709Z,7.85
2023-03-24T17:10:46.812Z,8.07
2023-03-24T17:13:17.053Z,8.01
2023-03-24T17:15:43.445Z,7.75
2023-03-24T17:18:09.838Z,7.75
2023-03-24T17:20:39.739Z,7.60
2023-03-24T17:23:07.089Z,7.73
2023-03-24T17:25:36.379Z,7.95
2023-03-24T17:28:03.004Z,7.94
2023-03-24T17:30:30.003Z,7.93
2023-03-24T17:32:59.774Z,8.03
2023-03-24T17:35:26.567Z,8.01
2023-03-24T17:37:52.915Z,8.06
2023-03-24T17:40:20.376Z,8.08
2023-03-24T17:42:47.257Z,7.64
2023-03-24T17:45:15.237Z,7.70
2023-03-24T17:47:41.855Z,7.62
2023-03-24T17:50:11.166Z,7.46
2023-03-24T17:52:39.270Z,7.37
2023-03-24T17:55:06.224Z,7.57
2023-03-24T17:57:32.843Z,7.51
2023-03-24T17:59:59.166Z,7.27
2023-03-24T18:02:32.828Z,7.37
2023-03-24T18:04:59.234Z,7.22
2023-03-24T18:07:25.749Z,7.23
2023-03-24T18:09:54.091Z,7.26
2023-03-24T18:12:27.118Z,6.95
2023-03-24T18:14:59.714Z,6.88
2023-03-24T18:17:30.571Z,6.94
2023-03-24T18:20:12.235Z,7.01
2023-03-24T18:22:46.960Z,7.08
2023-03-24T18:25:19.915Z,6.99
2023-03-24T18:27:49.663Z,7.18
2023-03-24T18:30:22.396Z,7.08
2023-03-24T18:32:49.048Z,7.27
2023-03-24T18:35:19.686Z,7.27
2023-03-24T18:37:46.047Z,7.33
2023-03-24T18:40:12.708Z,7.51
2023-03-24T18:42:39.084Z,7.29
2023-03-24T18:45:06.809Z,7.41
2023-03-24T18:47:33.214Z,7.22
2023-03-24T18:50:02.790Z,7.47
2023-03-24T18:52:29.164Z,7.25
2023-03-24T18:54:55.800Z,7.45
2023-03-24T18:57:22.137Z,7.38
2023-03-24T18:59:57.781Z,7.35
2023-03-24T19:02:24.094Z,7.10
2023-03-24T19:04:50.479Z,7.27
2023-03-24T19:07:24.342Z,7.28
2023-03-24T19:09:57.279Z,7.35
2023-03-24T19:12:23.675Z,7.32
2023-03-24T19:14:50.663Z,7.02
2023-03-24T19:17:17.051Z,6.84
2023-03-24T19:19:43.470Z,6.77
2023-03-24T19:22:12.833Z,6.80
2023-03-24T19:24:39.127Z,6.83
2023-03-24T19:27:05.544Z,6.62
2023-03-24T19:29:31.884Z,6.74
2023-03-24T19:31:58.175Z,6.83
2023-03-24T19:34:24.569Z,6.65
2023-03-24T19:36:51.912Z,6.91
2023-03-24T19:39:18.254Z,7.11
2023-03-24T19:41:44.829Z,6.68
2023-03-24T19:44:11.199Z,6.82
2023-03-24T19:46:37.566Z,6.64
2023-03-24T19:49:03.929Z,6.55
2023-03-24T19:51:39.475Z,6.66
2023-03-24T19:54:08.864Z,6.68
2023-03-24T19:56:35.427Z,6.59
2023-03-24T19:59:03.830Z,6.54
2023-03-24T20:01:38.315Z,6.51
2023-03-24T20:04:04.792Z,6.81
2023-03-24T20:06:35.587Z,6.97
2023-03-24T20:09:03.157Z,7.13
2023-03-24T20:11:30.760Z,6.92
2023-03-24T20:14:01.193Z,7.10
2023-03-24T20:16:27.621Z,7.16
2023-03-24T20:18:54.122Z,7.04
2023-03-24T20:21:24.440Z,7.09
2023-03-24T20:23:51.176Z,7.19
2023-03-24T20:26:22.599Z,7.13
2023-03-24T20:28:49.094Z,7.00
2023-03-24T20:31:17.372Z,6.75
2023-03-24T20:33:43.738Z,6.81
2023-03-24T20:36:10.137Z,6.90
2023-03-24T20:38:36.440Z,7.04
2023-03-24T20:41:05.304Z,7.15
2023-03-24T20:43:35.616Z,6.94
2023-03-24T20:46:02.861Z,7.00
2023-03-24T20:48:29.202Z,7.27
2023-03-24T20:50:56.546Z,7.06
2023-03-24T20:53:34.778Z,6.97
2023-03-24T20:56:01.105Z,7.16
2023-03-24T20:58:29.003Z,7.11
2023-03-24T21:00:57.446Z,7.00
2023-03-24T21:03:25.325Z,7.03
2023-03-24T21:05:53.674Z,6.69
2023-03-24T21:08:19.978Z,6.82
2023-03-24T21:10:46.306Z,6.85
2023-03-24T21:13:12.626Z,6.86
2023-03-24T21:15:42.941Z,6.62
2023-03-24T21:18:09.360Z,6.53
2023-03-24T21:20:37.288Z,6.56
2023-03-24T21:23:09.560Z,6.48
2023-03-24T21:25:36.663Z,6.43
2023-03-24T21:28:03.419Z,6.51
2023-03-24T21:30:30.330Z,6.55
2023-03-24T21:32:59.027Z,6.60
2023-03-24T21:35:26.534Z,6.59
2023-03-24T21:37:53.759Z,6.62
2023-03-24T21:40:21.595Z,6.70
2023-03-24T21:42:56.272Z,6.45
2023-03-24T21:45:32.333Z,6.46
2023-03-24T21:47:59.709Z,6.57
2023-03-24T21:50:38.832Z,6.59
2023-03-24T21:53:15.097Z,6.47
2023-03-24T21:55:42.095Z,6.64
2023-03-24T21:58:10.413Z,6.49
2023-03-24T22:00:40.973Z,6.50
2023-03-24T22:03:08.359Z,6.63
2023-03-24T22:05:44.145Z,6.71
2023-03-24T22:08:12.132Z,6.41
2023-03-24T22:10:42.448Z,6.52
2023-03-24T22:13:10.425Z,6.52
2023-03-24T22:15:37.602Z,6.53
2023-03-24T22:18:04.167Z,6.52
2023-03-24T22:20:31.907Z,6.34
2023-03-24T22:22:58.413Z,6.25
2023-03-24T22:25:24.690Z,6.20
2023-03-24T22:27:52.818Z,6.04
2023-03-24T22:30:19.351Z,6.09
2023-03-24T22:32:48.958Z,6.10
2023-03-24T22:35:15.533Z,6.24
2023-03-24T22:37:42.072Z,6.38
2023-03-24T22:40:09.135Z,6.37
2023-03-24T22:42:35.714Z,6.28
2023-03-24T22:45:02.020Z,6.41
2023-03-24T22:47:30.821Z,6.57
2023-03-24T22:49:57.163Z,6.51
2023-03-24T22:52:25.321Z,6.53
2023-03-24T22:54:52.498Z,6.56
2023-03-24T22:57:18.969Z,6.48
2023-03-24T22:59:45.250Z,6.53
2023-03-24T23:02:11.612Z,6.32
2023-03-24T23:04:40.402Z,6.43
2023-03-24T23:07:07.575Z,6.32
2023-03-24T23:09:33.992Z,6.48
2023-03-24T23:12:00.435Z,6.45
2023-03-24T23:14:27.709Z,6.34
2023-03-24T23:16:56.232Z,6.38
2023-03-24T23:19:23.171Z,6.44
2023-03-24T23:21:49.477Z,6.34
2023-03-24T23:24:16.211Z,6.52
2023-03-24T23:26:42.508Z,6.47
2023-03-24T23:29:09.549Z,6.58
2023-03-24T23:31:36.417Z,6.49
2023-03-24T23:34:04.387Z,6.47
2023-03-24T23:36:34.077Z,6.55
2023-03-24T23:39:00.402Z,6.57
2023-03-24T23:41:26.819Z,6.47
2023-03-24T23:43:53.464Z,6.50
2023-03-24T23:46:19.886Z,6.59
2023-03-24T23:48:46.308Z,6.59
2023-03-24T23:51:12.733Z,6.69
2023-03-24T23:53:39.224Z,6.68
2023-03-24T23:56:11.045Z,6.65
2023-03-24T23:58:38.718Z,6.65
